Pagrindinis puslapis
METAR-TAF:

METAR-TAF

Oro uostai :

Jakutskas, Rusija

platuma: 62-01N, ilguma: 129-43E, Aukštis: 103 m

Dabartinis oras

Ataskaita buvo paskelbta 43 minutes, ne 08:30 UTC
Ramus vėjas
Temperatūra -53°C
Drėgmė 47%
Slėgis 1021 hPa
Matomumas: 0400 m
rūkas

METAR: UEEE 190830Z 00000MPS 0500 0400NE R23L/1100N FG VV004 M53/M59 Q1021 R23L/450150 NOSIG RMK QBB120 QFE757

Laikas: 18:13 (09:13 UTC)

Prognozė

Ataskaita buvo paskelbta 1 valandą ir 13 minutes, ne 08:00 UTC
Prognozė galioja nuo 19 metu 09 UTC su 20 metu 15 UTC
Vėjas 2 kt nuo kintamojo kryptimis
Matomumas: 0300 m
ne aukštis 300 ft
rūkas
Laikinai
nuo 19 metu 09 UTC su 19 metu 21 UTC
Matomumas: 0700 m
rūkas

TAF: UEEE 190800Z 1909/2015 VRB01MPS 0300 FG VV003 TXM53/1909Z TNM55/1923Z TEMPO 1909/1921 0700 FG

Orai ataskaitas ir orų prognozės (METAR, TAF).

turimą stotys yra geltonos ir raudonos taškus žemėlapyje.

Perkelti pele per norėdami pamatyti stoties vardą.

Tada spustelėkite, norėdami matyti oro stebėjimo ir prognozės.

Norėdami pakeisti žemėlapį: spustelėkite ant žalios mygtukų su juodo kryžiaus žemyn,; žalią mygtuką su brūkšneliu, jei norite nutolinti; arba žalių rodyklių gretimoms žemėlapius.


METAR-TAF: